Time;durP1;ratioP1;P1;durP2;ratioP2;P2;SDS_P1;SDS_P2;PMS_P1;PMS_P2;Temp;Humidity;BMP_temperature;BMP_pressure;BME280_temperature;BME280_humidity;BME280_pressure;Samples;Min_cycle;Max_cycle;Signal;HPM_P1;HPM_P2
2022/06/04 00:01:37;;;;;;;3.78;3.40;;;18.90;59.60;;;;;;5064210;28;20415;-72
2022/06/04 00:04:06;;;;;;;4.25;3.85;;;18.80;59.60;;;;;;5063437;28;20491;-72
2022/06/04 00:06:33;;;;;;;3.63;3.10;;;18.80;60.60;;;;;;5063790;28;20521;-72
2022/06/04 00:08:59;;;;;;;3.95;3.65;;;18.80;60.00;;;;;;5055830;28;20905;-74
2022/06/04 00:16:56;;;;;;;3.30;3.10;;;18.70;60.40;;;;;;5065802;28;20811;-73
2022/06/04 00:19:24;;;;;;;3.35;3.15;;;18.70;60.00;;;;;;5077314;28;20411;-73
2022/06/04 00:21:51;;;;;;;3.80;3.50;;;18.70;60.60;;;;;;5075206;28;20438;-71
2022/06/04 00:24:18;;;;;;;3.88;3.58;;;18.60;60.90;;;;;;5068791;28;20495;-73
2022/06/04 00:26:45;;;;;;;3.67;3.42;;;18.60;61.00;;;;;;5070055;28;20411;-73
2022/06/04 00:29:12;;;;;;;3.55;3.35;;;18.60;60.70;;;;;;5071668;28;21034;-71
2022/06/04 00:31:39;;;;;;;3.80;3.50;;;18.60;60.70;;;;;;5066070;28;20502;-73
2022/06/04 00:34:06;;;;;;;3.70;3.50;;;18.60;60.90;;;;;;5064128;28;20442;-72
2022/06/04 00:36:34;;;;;;;4.50;3.30;;;18.60;60.10;;;;;;5064197;28;20888;-72
2022/06/04 00:39:01;;;;;;;3.50;3.25;;;18.60;60.60;;;;;;5062897;28;20442;-72
2022/06/04 00:41:36;;;;;;;3.70;3.40;;;18.60;60.80;;;;;;5064102;28;20411;-72
2022/06/04 00:44:21;;;;;;;3.67;3.38;;;18.50;61.40;;;;;;5066642;28;20408;-72
2022/06/04 00:47:10;;;;;;;3.67;3.47;;;18.50;61.30;;;;;;5067010;28;20430;-72
2022/06/04 00:49:38;;;;;;;3.50;3.30;;;18.50;61.30;;;;;;5067640;28;20426;-73
2022/06/04 00:52:10;;;;;;;3.72;3.42;;;18.40;61.30;;;;;;5068710;28;20527;-73
2022/06/04 00:54:37;;;;;;;3.85;3.40;;;18.40;62.00;;;;;;5074048;28;20481;-74
2022/06/04 00:57:24;;;;;;;3.42;3.22;;;18.40;61.60;;;;;;5055234;28;20417;-75
2022/06/04 01:00:01;;;;;;;3.25;3.03;;;18.30;62.30;;;;;;5057865;28;20401;-74
2022/06/04 01:02:35;;;;;;;3.65;3.40;;;18.30;62.50;;;;;;5048276;28;20516;-74
2022/06/04 01:05:09;;;;;;;4.30;3.90;;;18.30;62.50;;;;;;5047123;28;20431;-71
2022/06/04 01:07:56;;;;;;;4.00;3.60;;;18.20;61.70;;;;;;5060117;28;20427;-74
2022/06/04 01:10:38;;;;;;;3.80;3.60;;;18.20;62.10;;;;;;5062172;28;20427;-72
2022/06/04 01:13:18;;;;;;;3.90;3.60;;;18.20;62.10;;;;;;5066185;28;20426;-73
2022/06/04 01:15:53;;;;;;;3.60;3.30;;;18.20;62.80;;;;;;5067151;28;20481;-71
2022/06/04 01:18:36;;;;;;;3.70;3.40;;;18.10;62.70;;;;;;5067235;28;20516;-72
2022/06/04 01:21:13;;;;;;;4.20;3.50;;;18.10;62.30;;;;;;5067212;28;20604;-73
2022/06/04 01:24:19;;;;;;;4.20;3.80;;;18.10;61.80;;;;;;5066953;28;20430;-72
2022/06/04 01:27:21;;;;;;;4.00;3.70;;;18.10;62.50;;;;;;5050843;28;20773;-72
2022/06/04 01:29:57;;;;;;;3.90;3.70;;;18.10;62.00;;;;;;5060816;28;20905;-71
2022/06/04 01:32:28;;;;;;;3.70;3.40;;;18.10;62.00;;;;;;5066474;28;20411;-74
2022/06/04 01:35:03;;;;;;;4.05;3.75;;;18.00;62.10;;;;;;5066329;28;20423;-74
2022/06/04 01:37:34;;;;;;;4.10;3.70;;;18.00;62.60;;;;;;5066509;28;20416;-73
2022/06/04 01:42:50;;;;;;;4.27;3.87;;;17.90;62.90;;;;;;5066254;28;20540;-74
2022/06/04 01:45:22;;;;;;;4.40;4.00;;;17.90;62.90;;;;;;5065481;28;20416;-74
2022/06/04 01:47:51;;;;;;;4.30;4.00;;;17.90;62.50;;;;;;5067424;28;20415;-73
2022/06/04 01:50:21;;;;;;;4.20;3.90;;;17.90;62.70;;;;;;5067717;28;20456;-74
2022/06/04 01:52:50;;;;;;;4.20;3.90;;;17.90;62.50;;;;;;5066441;28;20777;-72
2022/06/04 01:55:22;;;;;;;3.80;3.60;;;17.90;63.20;;;;;;5066253;28;20427;-72
2022/06/04 01:57:56;;;;;;;3.60;3.40;;;17.90;63.10;;;;;;5067020;28;20963;-73
2022/06/04 02:00:28;;;;;;;3.90;3.60;;;17.90;62.40;;;;;;5066188;28;20407;-73
2022/06/04 02:02:58;;;;;;;4.03;3.72;;;17.80;62.80;;;;;;5065144;28;20412;-74
2022/06/04 02:05:30;;;;;;;4.25;4.03;;;17.80;63.30;;;;;;5066260;28;20411;-72
2022/06/04 02:08:00;;;;;;;4.30;4.00;;;17.80;63.30;;;;;;5062054;28;20424;-74
2022/06/04 02:10:31;;;;;;;4.10;3.80;;;17.80;63.60;;;;;;5061797;28;20422;-74
2022/06/04 02:13:01;;;;;;;3.70;3.40;;;17.80;64.10;;;;;;5066382;28;20411;-74
2022/06/04 02:15:38;;;;;;;4.20;3.90;;;17.80;62.80;;;;;;5069251;28;20481;-72
2022/06/04 02:18:06;;;;;;;4.20;3.90;;;17.80;63.00;;;;;;5067993;28;20402;-74
2022/06/04 02:20:33;;;;;;;3.90;3.60;;;17.80;63.90;;;;;;5066312;28;20415;-71
2022/06/04 02:23:00;;;;;;;4.17;3.90;;;17.80;63.80;;;;;;5066104;28;20423;-73
2022/06/04 02:25:29;;;;;;;4.00;3.70;;;17.80;63.70;;;;;;5065946;28;20408;-73
2022/06/04 02:27:56;;;;;;;4.30;4.00;;;17.70;64.60;;;;;;5065832;28;20499;-73
2022/06/04 02:30:28;;;;;;;4.30;3.90;;;17.70;65.10;;;;;;5065449;28;20411;-73
2022/06/04 02:33:04;;;;;;;4.40;3.88;;;17.70;64.80;;;;;;5065459;28;20826;-72
2022/06/04 02:35:38;;;;;;;3.90;3.60;;;17.70;65.20;;;;;;5065646;28;20852;-74
2022/06/04 02:38:12;;;;;;;3.90;3.70;;;17.60;65.40;;;;;;5065214;28;20426;-73
2022/06/04 02:40:44;;;;;;;4.00;3.80;;;17.70;65.30;;;;;;5065325;28;20870;-73
2022/06/04 02:43:17;;;;;;;4.25;3.95;;;17.60;65.30;;;;;;5065294;28;20530;-72
2022/06/04 02:45:51;;;;;;;4.40;4.00;;;17.60;65.70;;;;;;5065176;28;20762;-73
2022/06/04 02:48:26;;;;;;;3.90;3.50;;;17.60;65.20;;;;;;5065675;28;20412;-73
2022/06/04 02:50:58;;;;;;;4.53;4.23;;;17.50;64.80;;;;;;5065599;28;20422;-73
2022/06/04 02:53:26;;;;;;;4.20;3.80;;;17.50;65.10;;;;;;5065169;28;20423;-74
2022/06/04 02:56:04;;;;;;;4.70;4.30;;;17.50;64.80;;;;;;5076244;28;20463;-73
2022/06/04 02:58:32;;;;;;;4.40;4.10;;;17.50;65.30;;;;;;5070208;28;20411;-72
2022/06/04 03:01:00;;;;;;;4.28;3.97;;;17.50;64.90;;;;;;5065143;28;20423;-73
2022/06/04 03:03:28;;;;;;;4.40;4.10;;;17.40;65.60;;;;;;5064751;28;20851;-73
2022/06/04 03:05:57;;;;;;;4.50;4.20;;;17.40;65.60;;;;;;5064344;28;20438;-73
2022/06/04 03:08:25;;;;;;;4.60;4.30;;;17.30;65.20;;;;;;5056945;28;20424;-73
2022/06/04 03:10:51;;;;;;;4.75;4.35;;;17.30;65.40;;;;;;5063622;28;20870;-73
2022/06/04 03:13:18;;;;;;;4.78;4.43;;;17.20;65.60;;;;;;5064604;28;20423;-73
2022/06/04 03:15:45;;;;;;;4.70;4.30;;;17.20;65.40;;;;;;5064683;28;20488;-73
2022/06/04 03:18:12;;;;;;;4.78;4.38;;;17.20;65.60;;;;;;5064919;28;20913;-73
2022/06/04 03:20:41;;;;;;;4.80;4.40;;;17.20;66.00;;;;;;5065071;28;20411;-73
2022/06/04 03:23:08;;;;;;;4.68;4.28;;;17.20;66.70;;;;;;5065430;28;20422;-73
2022/06/04 03:25:35;;;;;;;5.40;5.00;;;17.10;65.90;;;;;;5076626;28;20419;-73
2022/06/04 03:28:02;;;;;;;5.20;4.90;;;17.10;65.70;;;;;;5075853;28;20419;-73
2022/06/04 03:30:29;;;;;;;5.10;4.70;;;17.10;66.00;;;;;;5052583;28;20489;-72
2022/06/04 03:32:56;;;;;;;4.80;4.40;;;17.10;66.30;;;;;;5047321;28;20432;-73
2022/06/04 03:35:23;;;;;;;5.60;5.10;;;17.10;66.60;;;;;;5045259;28;20420;-73
2022/06/04 03:37:52;;;;;;;5.55;5.05;;;17.10;66.10;;;;;;5044673;28;20454;-73
2022/06/04 03:40:19;;;;;;;5.20;4.80;;;17.00;66.90;;;;;;5044329;28;20789;-72
2022/06/04 03:42:46;;;;;;;4.80;4.50;;;17.00;66.60;;;;;;5043792;28;20413;-72
2022/06/04 03:45:15;;;;;;;4.80;4.50;;;17.00;66.70;;;;;;5054075;28;20423;-72
2022/06/04 03:47:42;;;;;;;5.00;4.60;;;17.00;66.90;;;;;;5063993;28;20490;-72
2022/06/04 03:50:12;;;;;;;5.10;4.70;;;17.00;66.80;;;;;;5064591;28;20442;-71
2022/06/04 03:52:40;;;;;;;4.60;4.30;;;17.00;66.30;;;;;;5063848;28;20750;-71
2022/06/04 03:55:11;;;;;;;5.00;4.60;;;16.90;67.00;;;;;;5064166;28;20438;-73
2022/06/04 03:57:41;;;;;;;4.80;4.40;;;16.90;66.80;;;;;;5064676;28;20415;-72
2022/06/04 04:00:14;;;;;;;5.10;4.70;;;16.90;66.80;;;;;;5064623;28;20474;-72
2022/06/04 04:02:42;;;;;;;4.90;4.50;;;17.00;66.50;;;;;;5063611;28;20915;-74
2022/06/04 04:05:10;;;;;;;5.40;4.90;;;16.90;66.70;;;;;;5064008;28;20407;-72
2022/06/04 04:07:38;;;;;;;5.40;4.90;;;17.00;67.00;;;;;;5062466;28;20447;-71
2022/06/04 04:10:06;;;;;;;5.82;5.32;;;16.90;67.10;;;;;;5057329;28;20412;-73
2022/06/04 04:12:34;;;;;;;5.40;4.90;;;16.90;67.50;;;;;;5063633;28;20889;-72
2022/06/04 04:15:01;;;;;;;5.75;5.25;;;16.90;67.10;;;;;;5064103;28;20858;-72
2022/06/04 04:17:28;;;;;;;5.10;4.80;;;17.00;66.10;;;;;;5064226;28;20411;-73
2022/06/04 04:19:54;;;;;;;5.18;4.78;;;16.90;66.20;;;;;;5067446;28;20418;-72
2022/06/04 04:22:21;;;;;;;5.60;5.30;;;16.90;66.50;;;;;;5067756;28;20420;-73
2022/06/04 04:24:48;;;;;;;5.18;4.88;;;16.90;66.40;;;;;;5067871;28;20829;-72
2022/06/04 04:27:15;;;;;;;5.40;5.10;;;17.00;66.80;;;;;;5069355;28;20442;-73
2022/06/04 04:29:43;;;;;;;5.20;4.80;;;16.90;67.50;;;;;;5075195;28;20415;-71
2022/06/04 04:32:10;;;;;;;5.15;4.85;;;16.90;67.40;;;;;;5073844;28;20450;-72
2022/06/04 04:34:37;;;;;;;4.80;4.50;;;16.90;67.40;;;;;;5074285;28;20426;-72
2022/06/04 04:37:04;;;;;;;5.53;5.03;;;16.90;67.30;;;;;;5055600;28;20479;-73
2022/06/04 04:39:31;;;;;;;5.20;4.80;;;16.90;67.10;;;;;;5051794;28;20413;-72
2022/06/04 04:41:58;;;;;;;5.40;5.00;;;16.90;67.20;;;;;;5048316;28;20421;-72
2022/06/04 04:44:25;;;;;;;4.95;4.50;;;16.90;67.30;;;;;;5047455;28;20423;-72
2022/06/04 04:46:53;;;;;;;5.45;4.95;;;17.00;66.90;;;;;;5047641;28;20405;-72
2022/06/04 04:49:20;;;;;;;5.43;5.03;;;17.00;67.40;;;;;;5047337;28;20420;-72
2022/06/04 04:51:47;;;;;;;5.40;5.00;;;17.00;66.90;;;;;;5047533;28;20413;-74
2022/06/04 04:54:14;;;;;;;5.10;4.70;;;17.00;67.40;;;;;;5062787;28;20437;-73
2022/06/04 04:56:41;;;;;;;5.70;5.20;;;17.00;66.50;;;;;;5066715;28;20542;-72
2022/06/04 04:59:08;;;;;;;5.20;4.80;;;17.00;67.30;;;;;;5067564;28;20422;-72
2022/06/04 05:01:36;;;;;;;5.47;4.97;;;17.10;67.60;;;;;;5066021;28;20935;-72
2022/06/04 05:04:05;;;;;;;5.40;4.90;;;17.10;67.70;;;;;;5066398;28;20419;-72
2022/06/04 05:06:32;;;;;;;4.90;4.60;;;17.10;66.20;;;;;;5066352;28;20407;-72
2022/06/04 05:08:59;;;;;;;5.47;5.18;;;17.20;66.60;;;;;;5060901;28;20769;-72
2022/06/04 05:11:29;;;;;;;4.82;4.43;;;17.20;66.50;;;;;;5061509;28;20894;-72
2022/06/04 05:13:56;;;;;;;5.20;4.90;;;17.30;66.00;;;;;;5056476;28;20525;-72
2022/06/04 05:16:25;;;;;;;5.30;4.90;;;17.30;65.60;;;;;;5056587;28;20779;-73
2022/06/04 05:18:52;;;;;;;5.20;4.90;;;17.30;65.70;;;;;;5066856;28;20430;-72
2022/06/04 05:21:24;;;;;;;5.28;4.78;;;17.40;65.50;;;;;;5068071;28;20433;-72
2022/06/04 05:23:51;;;;;;;5.20;4.80;;;17.40;65.60;;;;;;5066077;28;20482;-72
2022/06/04 05:26:18;;;;;;;5.35;4.95;;;17.40;65.10;;;;;;5066648;28;21051;-72
2022/06/04 05:28:46;;;;;;;5.33;4.83;;;17.50;64.30;;;;;;5067615;28;20519;-73
2022/06/04 05:31:13;;;;;;;5.20;4.80;;;17.50;64.80;;;;;;5066002;28;20419;-73
2022/06/04 05:33:40;;;;;;;5.03;4.72;;;17.60;65.10;;;;;;5064015;28;20545;-72
2022/06/04 05:36:07;;;;;;;5.10;4.70;;;17.60;64.80;;;;;;5062652;28;20430;-72
2022/06/04 05:38:36;;;;;;;5.10;4.70;;;17.70;64.70;;;;;;5071084;28;20425;-73
2022/06/04 05:41:06;;;;;;;5.00;4.60;;;17.80;63.80;;;;;;5072198;28;20535;-72
2022/06/04 05:43:34;;;;;;;5.25;4.80;;;17.90;64.00;;;;;;5058996;28;20423;-72
2022/06/04 05:46:03;;;;;;;4.97;4.40;;;18.00;62.90;;;;;;5070861;28;20425;-72
2022/06/04 05:48:31;;;;;;;4.60;4.30;;;18.10;63.20;;;;;;5067050;28;20522;-73
2022/06/04 05:50:58;;;;;;;5.20;4.80;;;18.20;62.50;;;;;;5066368;28;20797;-73
2022/06/04 05:53:26;;;;;;;5.00;4.70;;;18.30;62.20;;;;;;5063941;28;20430;-72
2022/06/04 05:55:54;;;;;;;5.40;4.90;;;18.40;61.30;;;;;;5066061;28;20459;-72
2022/06/04 05:58:21;;;;;;;4.70;4.40;;;18.50;62.20;;;;;;5066479;28;20450;-74
2022/06/04 06:00:47;;;;;;;5.15;4.70;;;18.60;62.20;;;;;;5065725;28;20420;-73
2022/06/04 06:03:14;;;;;;;4.82;4.53;;;18.70;61.90;;;;;;5059418;28;20411;-72
2022/06/04 06:05:43;;;;;;;4.93;4.63;;;18.70;61.00;;;;;;5066151;28;20454;-72
2022/06/04 06:08:10;;;;;;;4.63;4.13;;;18.70;60.70;;;;;;5067126;28;20415;-72
2022/06/04 06:10:40;;;;;;;4.70;4.30;;;18.80;61.30;;;;;;5067485;28;20437;-72
2022/06/04 06:13:09;;;;;;;4.30;4.00;;;18.80;61.20;;;;;;5068080;28;20886;-72
2022/06/04 06:15:36;;;;;;;4.60;4.30;;;18.90;60.70;;;;;;5066574;28;20476;-73
2022/06/04 06:18:03;;;;;;;5.10;4.60;;;18.90;61.40;;;;;;5065180;28;20431;-73
2022/06/04 06:20:31;;;;;;;4.93;4.50;;;19.00;61.00;;;;;;5064611;28;20419;-72
2022/06/04 06:22:58;;;;;;;4.93;4.53;;;19.00;60.60;;;;;;5067055;28;20457;-73
2022/06/04 06:25:24;;;;;;;4.70;4.40;;;19.00;60.40;;;;;;5064890;28;20769;-72
2022/06/04 06:27:52;;;;;;;4.95;4.55;;;19.10;59.90;;;;;;5067033;28;20749;-73
2022/06/04 06:30:20;;;;;;;4.30;4.00;;;19.10;60.40;;;;;;5067850;28;20443;-73
2022/06/04 06:32:47;;;;;;;4.55;4.15;;;19.10;59.80;;;;;;5065411;28;20422;-72
2022/06/04 06:35:14;;;;;;;4.75;4.40;;;19.10;59.50;;;;;;5067964;28;20419;-73
2022/06/04 06:37:41;;;;;;;5.22;4.75;;;19.20;60.70;;;;;;5072671;28;20431;-73
2022/06/04 06:40:09;;;;;;;4.75;4.35;;;19.30;59.90;;;;;;5078771;28;20412;-72
2022/06/04 06:42:36;;;;;;;4.70;4.30;;;19.30;59.70;;;;;;5077655;28;20424;-73
2022/06/04 06:45:02;;;;;;;4.78;4.40;;;19.40;59.50;;;;;;5068110;28;20865;-74
2022/06/04 06:47:32;;;;;;;4.80;4.50;;;19.40;59.90;;;;;;5064260;28;20435;-74
2022/06/04 06:50:00;;;;;;;4.70;4.40;;;19.40;58.70;;;;;;5053309;28;20429;-75
2022/06/04 06:52:27;;;;;;;4.95;4.55;;;19.50;59.80;;;;;;5056657;28;20420;-74
2022/06/04 06:54:53;;;;;;;4.88;4.38;;;19.50;59.50;;;;;;5065203;28;20499;-74
2022/06/04 06:57:20;;;;;;;6.75;6.25;;;19.60;59.10;;;;;;5052461;28;20433;-74
2022/06/04 06:59:48;;;;;;;6.20;5.70;;;19.60;59.00;;;;;;5064989;28;20420;-72
2022/06/04 07:02:15;;;;;;;5.30;4.90;;;19.70;58.60;;;;;;5065373;28;20426;-74
2022/06/04 07:04:43;;;;;;;5.75;5.35;;;19.80;58.00;;;;;;5065369;28;20499;-73
2022/06/04 07:07:10;;;;;;;7.40;6.00;;;19.90;58.80;;;;;;5065813;28;20969;-73
2022/06/04 07:09:39;;;;;;;5.50;5.00;;;19.90;57.90;;;;;;5064781;28;20411;-74
2022/06/04 07:12:07;;;;;;;5.10;4.55;;;20.10;58.10;;;;;;5064599;28;20416;-73
2022/06/04 07:14:34;;;;;;;4.75;4.35;;;20.20;56.80;;;;;;5064921;28;20423;-74
2022/06/04 07:17:03;;;;;;;4.60;4.30;;;20.30;56.70;;;;;;5064740;28;20533;-73
2022/06/04 07:19:30;;;;;;;4.85;4.45;;;20.50;56.30;;;;;;5065193;28;20507;-73
2022/06/04 07:21:58;;;;;;;4.15;3.85;;;20.60;57.30;;;;;;5065397;28;20491;-74
2022/06/04 07:24:26;;;;;;;4.40;4.10;;;20.60;56.60;;;;;;5061925;28;20854;-73
2022/06/04 07:26:53;;;;;;;4.00;3.70;;;20.80;55.60;;;;;;5064803;28;20477;-74
2022/06/04 07:29:20;;;;;;;4.40;4.00;;;20.90;55.80;;;;;;5064836;28;20411;-74
2022/06/04 07:31:47;;;;;;;4.72;4.32;;;21.00;55.30;;;;;;5064657;28;21053;-74
2022/06/04 07:34:14;;;;;;;4.30;4.00;;;21.10;54.90;;;;;;5064268;28;20424;-74
2022/06/04 07:36:43;;;;;;;4.22;3.78;;;21.20;54.20;;;;;;5064283;28;20423;-74
2022/06/04 07:39:14;;;;;;;4.88;4.10;;;21.30;54.50;;;;;;5065009;28;20412;-74
2022/06/04 07:41:43;;;;;;;4.30;3.60;;;21.40;54.10;;;;;;5064638;28;20435;-74
2022/06/04 07:44:11;;;;;;;4.40;4.10;;;21.60;53.50;;;;;;5057233;28;20426;-74
2022/06/04 07:46:40;;;;;;;4.10;3.75;;;21.70;52.50;;;;;;5064629;28;20403;-74
2022/06/04 07:49:08;;;;;;;5.63;4.60;;;21.80;52.60;;;;;;5065203;28;20818;-73
2022/06/04 07:51:35;;;;;;;4.88;4.47;;;21.80;52.80;;;;;;5064516;28;20522;-73
2022/06/04 07:54:04;;;;;;;4.30;4.00;;;21.80;53.20;;;;;;5061726;28;21004;-73
2022/06/04 07:56:32;;;;;;;4.10;3.80;;;22.00;53.00;;;;;;5066926;28;20443;-72
2022/06/04 07:58:59;;;;;;;4.00;3.70;;;22.10;52.20;;;;;;5068772;28;20431;-72
2022/06/04 08:01:28;;;;;;;4.10;3.80;;;22.20;51.70;;;;;;5068542;28;20442;-72
2022/06/04 08:03:55;;;;;;;4.70;4.30;;;22.30;51.60;;;;;;5068430;28;20519;-72
2022/06/04 08:06:23;;;;;;;9.13;4.75;;;22.40;51.30;;;;;;5068465;28;20418;-72
2022/06/04 08:08:51;;;;;;;9.35;5.43;;;22.50;51.60;;;;;;5068798;28;20419;-72
2022/06/04 08:11:35;;;;;;;5.32;4.82;;;22.70;50.30;;;;;;5068548;28;20476;-73
2022/06/04 08:14:09;;;;;;;5.00;4.60;;;22.80;50.40;;;;;;5068207;28;20425;-74
2022/06/04 08:16:41;;;;;;;5.03;4.60;;;22.90;50.20;;;;;;5067665;28;20438;-72
2022/06/04 08:19:09;;;;;;;6.77;4.67;;;23.00;49.70;;;;;;5068420;28;20472;-72
2022/06/04 08:21:37;;;;;;;7.28;4.63;;;23.00;49.50;;;;;;5068562;28;20778;-72
2022/06/04 08:24:05;;;;;;;7.32;5.50;;;23.00;50.20;;;;;;5070961;28;20416;-72
2022/06/04 08:26:32;;;;;;;7.22;4.70;;;23.00;49.70;;;;;;5082828;28;20416;-73
2022/06/04 08:28:59;;;;;;;7.43;5.20;;;23.10;50.40;;;;;;5069385;28;20482;-72
2022/06/04 08:31:27;;;;;;;7.05;5.30;;;23.20;49.30;;;;;;5069918;28;20915;-71
2022/06/04 08:33:55;;;;;;;5.35;4.70;;;23.40;49.00;;;;;;5074905;28;20408;-72
2022/06/04 08:36:22;;;;;;;4.72;3.80;;;23.40;48.50;;;;;;5072722;28;20423;-72
2022/06/04 08:38:49;;;;;;;4.75;4.20;;;23.40;48.10;;;;;;5071117;28;20414;-73
2022/06/04 08:41:23;;;;;;;4.60;4.20;;;23.40;48.60;;;;;;5071050;28;20426;-72
2022/06/04 08:43:56;;;;;;;4.63;4.22;;;23.40;48.60;;;;;;5070141;28;20408;-72
2022/06/04 08:46:37;;;;;;;6.40;3.72;;;23.70;48.90;;;;;;5069356;28;20423;-74
2022/06/04 08:49:08;;;;;;;4.13;3.83;;;24.30;47.70;;;;;;5070448;28;20454;-72
2022/06/04 08:51:35;;;;;;;5.53;3.85;;;24.70;45.60;;;;;;5068602;28;20427;-72
2022/06/04 08:57:32;;;;;;;4.20;3.60;;;24.70;45.30;;;;;;5067164;28;20719;-72
2022/06/04 08:59:51;;;;;;;4.40;3.63;;;24.80;45.70;;;;;;5048806;28;20431;-71
2022/06/04 09:02:22;;;;;;;4.35;3.20;;;24.80;45.10;;;;;;5045093;28;20423;-70
2022/06/04 09:05:02;;;;;;;3.50;3.20;;;25.00;45.30;;;;;;5039916;28;20415;-71
2022/06/04 09:07:35;;;;;;;3.40;3.20;;;25.40;44.60;;;;;;5022947;28;20497;-71
2022/06/04 09:10:07;;;;;;;3.88;3.58;;;25.80;43.90;;;;;;5020781;28;20452;-71
2022/06/04 09:12:38;;;;;;;3.33;3.13;;;26.30;42.30;;;;;;5017839;28;20429;-70
2022/06/04 09:15:11;;;;;;;3.90;3.50;;;26.60;42.40;;;;;;5019793;28;20425;-70
2022/06/04 09:17:43;;;;;;;4.00;3.00;;;26.90;40.70;;;;;;5011536;28;20527;-70
2022/06/04 09:20:19;;;;;;;3.20;3.00;;;27.30;41.10;;;;;;5011070;28;20428;-70
2022/06/04 09:22:48;;;;;;;3.30;3.00;;;27.50;41.30;;;;;;5010917;28;20434;-71
2022/06/04 09:25:17;;;;;;;3.90;3.50;;;27.50;40.10;;;;;;5011625;28;20488;-71
2022/06/04 09:27:52;;;;;;;3.60;3.30;;;27.30;40.30;;;;;;5020011;28;20431;-71
2022/06/04 09:30:25;;;;;;;3.77;3.40;;;26.80;41.30;;;;;;5012790;28;20427;-69
2022/06/04 09:33:31;;;;;;;4.30;3.40;;;26.40;41.70;;;;;;5011431;28;20421;-71
2022/06/04 09:35:58;;;;;;;3.90;3.60;;;26.30;42.90;;;;;;5002619;28;20427;-71
2022/06/04 09:38:27;;;;;;;4.65;3.55;;;26.30;43.40;;;;;;5010368;28;20435;-71
2022/06/04 09:40:59;;;;;;;4.20;3.90;;;26.30;42.70;;;;;;5010565;28;20495;-71
2022/06/04 09:43:26;;;;;;;3.67;3.40;;;26.30;42.80;;;;;;5023121;28;20421;-71
2022/06/04 09:45:56;;;;;;;5.25;3.78;;;26.40;41.90;;;;;;5010588;28;20425;-70
2022/06/04 09:48:27;;;;;;;7.83;4.17;;;26.30;42.00;;;;;;4997180;28;20422;-70
2022/06/04 09:50:56;;;;;;;8.63;5.32;;;26.30;43.10;;;;;;5010359;28;20428;-70
2022/06/04 09:53:25;;;;;;;3.92;3.30;;;26.40;43.60;;;;;;5010553;28;20421;-71
2022/06/04 09:55:57;;;;;;;3.85;3.50;;;26.60;42.90;;;;;;5010711;28;20844;-71
2022/06/04 09:58:28;;;;;;;4.25;3.80;;;26.70;41.50;;;;;;5010809;28;20428;-71
2022/06/04 10:00:57;;;;;;;4.78;4.05;;;26.40;41.80;;;;;;5010645;28;20527;-69
2022/06/04 10:03:26;;;;;;;4.80;3.83;;;26.10;43.20;;;;;;5009847;28;20412;-69
2022/06/04 10:05:58;;;;;;;3.60;3.30;;;26.00;43.90;;;;;;5009952;28;20420;-70
2022/06/04 10:08:27;;;;;;;3.90;2.92;;;26.00;43.60;;;;;;5009920;28;20423;-69
2022/06/04 10:10:58;;;;;;;4.35;3.08;;;26.00;44.40;;;;;;5009596;28;20452;-71
2022/06/04 10:13:43;;;;;;;4.40;3.67;;;26.10;44.50;;;;;;5009698;28;20834;-71
2022/06/04 10:16:19;;;;;;;4.30;3.90;;;26.10;43.70;;;;;;5010017;28;20899;-70
2022/06/04 10:18:59;;;;;;;4.18;3.78;;;26.10;43.40;;;;;;5009976;28;20433;-71
2022/06/04 10:21:28;;;;;;;3.65;3.35;;;25.90;43.10;;;;;;5011574;28;20448;-71
2022/06/04 10:23:57;;;;;;;4.10;3.58;;;25.70;45.00;;;;;;5015595;28;21002;-71
2022/06/04 10:26:41;;;;;;;3.90;3.60;;;25.80;44.70;;;;;;5011707;28;20455;-71
2022/06/04 10:29:46;;;;;;;3.70;3.40;;;26.10;44.50;;;;;;5010064;28;20428;-71
2022/06/04 10:32:25;;;;;;;4.30;3.25;;;26.40;43.90;;;;;;5010652;28;20428;-71
2022/06/04 10:35:02;;;;;;;4.47;4.15;;;26.70;42.60;;;;;;5010152;28;20439;-70
2022/06/04 10:37:45;;;;;;;3.97;3.67;;;26.80;41.30;;;;;;5009676;28;20442;-70
2022/06/04 10:40:26;;;;;;;4.07;3.75;;;26.60;41.60;;;;;;5009613;28;20443;-69
2022/06/04 10:43:00;;;;;;;4.18;3.88;;;26.60;43.00;;;;;;5009407;28;20419;-69
2022/06/04 10:45:33;;;;;;;4.20;3.90;;;26.80;42.80;;;;;;5009374;28;20428;-70
2022/06/04 10:48:08;;;;;;;3.90;3.60;;;27.20;41.90;;;;;;5009538;28;20427;-71
2022/06/04 10:53:45;;;;;;;3.85;3.55;;;27.30;41.40;;;;;;5009006;28;20539;-71
2022/06/04 10:56:18;;;;;;;3.90;3.20;;;27.50;41.30;;;;;;5010004;28;20425;-71
2022/06/04 10:58:50;;;;;;;4.40;4.00;;;27.50;41.60;;;;;;5010607;28;20431;-71
2022/06/04 11:01:26;;;;;;;3.65;3.45;;;27.60;41.20;;;;;;5010077;28;20898;-71
2022/06/04 11:04:04;;;;;;;3.80;3.50;;;27.60;42.10;;;;;;5009684;28;20417;-71
2022/06/04 11:06:35;;;;;;;3.60;3.30;;;27.70;41.70;;;;;;5013565;28;20510;-71
2022/06/04 11:09:06;;;;;;;4.75;3.60;;;27.80;41.90;;;;;;5018245;28;20800;-69
2022/06/04 11:11:38;;;;;;;4.05;3.75;;;27.80;41.80;;;;;;5008884;28;20427;-71
2022/06/04 11:14:10;;;;;;;3.63;3.33;;;27.80;42.40;;;;;;5008987;28;20428;-70
2022/06/04 11:16:42;;;;;;;4.00;3.70;;;28.00;41.80;;;;;;5009460;28;20788;-69
2022/06/04 11:19:14;;;;;;;4.05;3.67;;;28.20;41.40;;;;;;5009046;28;20432;-71
2022/06/04 11:21:49;;;;;;;5.00;3.60;;;28.50;40.20;;;;;;5008977;28;20428;-70
2022/06/04 11:24:18;;;;;;;4.00;3.50;;;28.50;40.80;;;;;;5016340;28;20421;-71
2022/06/04 11:26:50;;;;;;;3.97;3.67;;;28.80;40.50;;;;;;5011184;28;20915;-69
2022/06/04 11:29:17;;;;;;;4.72;4.20;;;29.00;40.60;;;;;;5009026;28;20440;-70
2022/06/04 11:31:57;;;;;;;4.00;3.70;;;29.20;39.00;;;;;;5009169;28;20456;-69
2022/06/04 11:34:42;;;;;;;3.78;3.47;;;29.20;39.80;;;;;;5008942;28;20756;-68
2022/06/04 11:37:19;;;;;;;4.20;3.90;;;29.40;39.40;;;;;;5013099;28;20416;-70
2022/06/04 11:40:09;;;;;;;4.40;4.03;;;29.60;39.30;;;;;;5008836;28;20428;-70
2022/06/04 11:42:49;;;;;;;3.67;3.38;;;29.70;39.10;;;;;;5012777;28;20423;-70
2022/06/04 11:45:40;;;;;;;3.88;3.67;;;29.80;38.80;;;;;;5008355;28;20811;-70
2022/06/04 11:48:37;;;;;;;3.90;3.60;;;30.00;38.80;;;;;;5002032;28;20474;-69
2022/06/04 11:51:16;;;;;;;3.70;3.40;;;29.90;38.40;;;;;;5003631;28;20435;-69
2022/06/04 11:53:51;;;;;;;3.83;3.53;;;30.10;38.50;;;;;;5008822;28;20812;-70
2022/06/04 11:56:23;;;;;;;4.20;3.80;;;30.20;38.80;;;;;;5001314;28;20778;-69
2022/06/04 11:59:34;;;;;;;3.15;2.92;;;30.20;38.30;;;;;;5010055;28;20723;-70
2022/06/04 12:02:06;;;;;;;4.00;3.58;;;30.40;38.70;;;;;;5008892;28;20427;-69
2022/06/04 12:04:37;;;;;;;3.70;3.40;;;30.70;36.60;;;;;;5009374;28;20424;-70
2022/06/04 12:07:09;;;;;;;3.80;3.60;;;30.70;36.80;;;;;;5009389;28;20768;-69
2022/06/04 12:09:45;;;;;;;3.60;3.40;;;30.70;37.20;;;;;;5010263;28;20500;-69
2022/06/04 12:12:21;;;;;;;3.70;3.40;;;30.60;37.20;;;;;;5009664;28;20503;-70
2022/06/04 12:14:53;;;;;;;3.90;3.47;;;30.60;38.60;;;;;;5010107;28;20431;-70
2022/06/04 12:17:24;;;;;;;3.60;3.30;;;30.90;37.70;;;;;;5008991;28;20939;-69
2022/06/04 12:25:37;;;;;;;3.85;3.55;;;31.30;36.50;;;;;;5015311;28;20778;-69
2022/06/04 12:28:19;;;;;;;3.70;3.40;;;31.40;36.00;;;;;;5009149;28;20452;-70
2022/06/04 12:30:47;;;;;;;3.90;3.60;;;31.40;36.30;;;;;;5008578;28;20427;-72
2022/06/04 12:33:25;;;;;;;4.00;3.70;;;31.60;35.40;;;;;;5009071;28;20899;-70
2022/06/04 12:36:01;;;;;;;3.55;3.25;;;31.60;36.40;;;;;;5008126;28;20473;-70
2022/06/04 12:38:28;;;;;;;4.10;3.70;;;31.60;37.00;;;;;;5008764;28;20775;-69
2022/06/04 12:41:13;;;;;;;6.28;3.83;;;31.60;35.70;;;;;;5011997;28;20423;-69
2022/06/04 12:43:42;;;;;;;4.20;3.63;;;31.70;35.20;;;;;;5012562;28;20416;-70
2022/06/04 12:46:16;;;;;;;3.53;3.22;;;31.70;36.70;;;;;;5011960;28;20416;-71
2022/06/04 12:49:01;;;;;;;3.40;3.10;;;31.80;36.50;;;;;;5013034;28;20412;-71
2022/06/04 12:51:41;;;;;;;3.30;3.10;;;31.90;35.70;;;;;;5018780;28;20470;-71
2022/06/04 12:54:20;;;;;;;3.20;3.00;;;32.00;36.50;;;;;;5005529;28;20511;-69
2022/06/04 12:56:55;;;;;;;3.50;3.20;;;32.00;36.50;;;;;;5006721;28;20443;-70
2022/06/04 12:59:39;;;;;;;3.93;3.63;;;32.10;35.60;;;;;;5007865;28;20948;-72
2022/06/04 13:02:26;;;;;;;3.40;3.20;;;32.10;35.60;;;;;;5012420;28;20870;-70
2022/06/04 13:05:11;;;;;;;3.40;3.20;;;32.20;36.50;;;;;;5024907;28;20924;-70
2022/06/04 13:07:45;;;;;;;3.90;3.70;;;32.40;36.10;;;;;;5028758;28;20407;-72
2022/06/04 13:10:21;;;;;;;3.25;3.05;;;32.50;36.00;;;;;;5027353;28;20446;-71
2022/06/04 13:12:59;;;;;;;3.20;3.00;;;32.70;35.90;;;;;;5027389;28;20421;-69
2022/06/04 13:15:34;;;;;;;3.10;2.90;;;32.80;35.70;;;;;;5025140;28;21102;-69
2022/06/04 13:18:01;;;;;;;3.10;2.90;;;33.00;33.90;;;;;;5024619;28;20429;-69
2022/06/04 13:20:40;;;;;;;3.50;3.20;;;33.00;33.90;;;;;;5020197;28;20939;-69
2022/06/04 13:23:19;;;;;;;3.55;2.92;;;33.10;33.00;;;;;;5002391;28;20421;-71
2022/06/04 13:25:53;;;;;;;2.83;2.63;;;33.40;33.10;;;;;;5024366;28;20415;-69
2022/06/04 13:28:34;;;;;;;2.80;2.70;;;33.40;32.90;;;;;;5011915;28;20421;-71
2022/06/04 13:31:01;;;;;;;3.40;3.10;;;33.20;35.10;;;;;;5013092;28;20424;-71